createdAt,value
2023-02-07T00:00:25.100Z,-6.70
2023-02-07T00:02:52.515Z,-6.70
2023-02-07T00:05:19.608Z,-6.70
2023-02-07T00:07:46.771Z,-6.70
2023-02-07T00:10:13.837Z,-6.70
2023-02-07T00:12:40.909Z,-6.70
2023-02-07T00:15:08.364Z,-6.80
2023-02-07T00:17:35.369Z,-6.80
2023-02-07T00:20:02.445Z,-6.80
2023-02-07T00:22:29.601Z,-6.80
2023-02-07T00:24:56.835Z,-6.80
2023-02-07T00:27:24.351Z,-6.80
2023-02-07T00:29:51.543Z,-6.80
2023-02-07T00:32:18.612Z,-6.80
2023-02-07T00:34:46.708Z,-6.80
2023-02-07T00:37:13.933Z,-6.80
2023-02-07T00:39:41.276Z,-6.90
2023-02-07T00:42:08.306Z,-6.90
2023-02-07T00:44:35.388Z,-6.90
2023-02-07T00:47:02.983Z,-6.90
2023-02-07T00:49:30.105Z,-6.90
2023-02-07T00:51:57.485Z,-6.90
2023-02-07T00:54:24.801Z,-6.90
2023-02-07T00:56:52.601Z,-7.00
2023-02-07T00:59:21.169Z,-7.00
2023-02-07T01:01:48.328Z,-7.00
2023-02-07T01:04:15.525Z,-7.10
2023-02-07T01:06:43.450Z,-7.10
2023-02-07T01:09:10.629Z,-7.00
2023-02-07T01:11:37.676Z,-7.10
2023-02-07T01:14:04.674Z,-7.10
2023-02-07T01:16:33.533Z,-7.10
2023-02-07T01:19:02.381Z,-7.20
2023-02-07T01:21:29.745Z,-7.10
2023-02-07T01:23:57.170Z,-7.10
2023-02-07T01:26:25.126Z,-7.20
2023-02-07T01:28:55.016Z,-7.20
2023-02-07T01:31:22.771Z,-7.20
2023-02-07T01:33:54.988Z,-7.20
2023-02-07T01:36:22.228Z,-7.20
2023-02-07T01:38:51.638Z,-7.30
2023-02-07T01:41:18.652Z,-7.30
2023-02-07T01:43:58.055Z,-7.30
2023-02-07T01:46:25.986Z,-7.30
2023-02-07T01:48:55.665Z,-7.40
2023-02-07T01:51:23.161Z,-7.40
2023-02-07T01:53:51.414Z,-7.40
2023-02-07T01:56:30.744Z,-7.40
2023-02-07T01:59:01.265Z,-7.40
2023-02-07T02:01:28.458Z,-7.50
2023-02-07T02:03:56.637Z,-7.50
2023-02-07T02:06:25.605Z,-7.50
2023-02-07T02:08:54.850Z,-7.50
2023-02-07T02:11:29.188Z,-7.50
2023-02-07T02:14:17.935Z,-7.50
2023-02-07T02:16:51.129Z,-7.50
2023-02-07T02:19:24.215Z,-7.60
2023-02-07T02:22:08.828Z,-7.60
2023-02-07T02:24:47.370Z,-7.60
2023-02-07T02:27:32.194Z,-7.60
2023-02-07T02:30:18.196Z,-7.60
2023-02-07T02:33:03.732Z,-7.60
2023-02-07T02:35:56.024Z,-7.60
2023-02-07T02:38:29.488Z,-7.60
2023-02-07T02:41:05.841Z,-7.60
2023-02-07T02:43:41.966Z,-7.60
2023-02-07T02:46:12.287Z,-7.60
2023-02-07T02:48:40.564Z,-7.60
2023-02-07T02:51:07.678Z,-7.60
2023-02-07T02:53:34.719Z,-7.60
2023-02-07T02:56:21.489Z,-7.60
2023-02-07T02:58:51.598Z,-7.60
2023-02-07T03:01:28.147Z,-7.60
2023-02-07T03:04:01.274Z,-7.60
2023-02-07T03:06:47.216Z,-7.60
2023-02-07T03:09:17.555Z,-7.70
2023-02-07T03:11:57.693Z,-7.80
2023-02-07T03:14:30.856Z,-7.70
2023-02-07T03:17:00.612Z,-7.70
2023-02-07T03:19:27.633Z,-7.80
2023-02-07T03:21:59.474Z,-7.80
2023-02-07T03:24:28.848Z,-7.80
2023-02-07T03:26:57.835Z,-7.80
2023-02-07T03:29:26.472Z,-7.90
2023-02-07T03:31:58.168Z,-7.90
2023-02-07T03:34:30.427Z,-7.90
2023-02-07T03:37:06.939Z,-7.90
2023-02-07T03:39:34.150Z,-7.90
2023-02-07T03:42:03.223Z,-7.90
2023-02-07T03:44:31.836Z,-7.90
2023-02-07T03:46:59.691Z,-7.90
2023-02-07T03:49:26.835Z,-7.90
2023-02-07T03:51:54.406Z,-8.00
2023-02-07T03:54:21.440Z,-8.00
2023-02-07T03:56:48.467Z,-8.00
2023-02-07T03:59:15.569Z,-8.00
2023-02-07T04:01:43.433Z,-8.00
2023-02-07T04:04:10.855Z,-8.00
2023-02-07T04:06:38.048Z,-8.00
2023-02-07T04:09:05.258Z,-8.00
2023-02-07T04:11:32.308Z,-8.10
2023-02-07T04:13:59.449Z,-8.10
2023-02-07T04:16:26.770Z,-8.00
2023-02-07T04:18:53.794Z,-8.10
2023-02-07T04:21:20.867Z,-8.10
2023-02-07T04:23:47.978Z,-8.10
2023-02-07T04:26:14.981Z,-8.10
2023-02-07T04:28:42.249Z,-8.10
2023-02-07T04:31:09.287Z,-8.20
2023-02-07T04:33:36.368Z,-8.20
2023-02-07T04:36:03.744Z,-8.20
2023-02-07T04:38:30.806Z,-8.20
2023-02-07T04:40:58.673Z,-8.30
2023-02-07T04:43:25.737Z,-8.30
2023-02-07T04:45:52.717Z,-8.20
2023-02-07T04:48:19.752Z,-8.20
2023-02-07T04:50:46.839Z,-8.30
2023-02-07T04:53:14.300Z,-8.30
2023-02-07T04:55:41.341Z,-8.30
2023-02-07T04:58:08.494Z,-8.30
2023-02-07T05:00:35.560Z,-8.40
2023-02-07T05:03:02.635Z,-8.30
2023-02-07T05:05:29.704Z,-8.30
2023-02-07T05:07:56.764Z,-8.40
2023-02-07T05:10:23.965Z,-8.40
2023-02-07T05:12:51.000Z,-8.40
2023-02-07T05:15:18.108Z,-8.40
2023-02-07T05:17:45.759Z,-8.40
2023-02-07T05:20:12.860Z,-8.40
2023-02-07T05:22:39.970Z,-8.50
2023-02-07T05:25:07.164Z,-8.40
2023-02-07T05:27:34.207Z,-8.50
2023-02-07T05:30:01.261Z,-8.50
2023-02-07T05:32:47.066Z,-8.50
2023-02-07T05:35:14.274Z,-8.60
2023-02-07T05:37:41.397Z,-8.50
2023-02-07T05:40:09.517Z,-8.50
2023-02-07T05:42:36.652Z,-8.50
2023-02-07T05:45:03.865Z,-8.60
2023-02-07T05:47:30.968Z,-8.60
2023-02-07T05:49:58.209Z,-8.60
2023-02-07T05:52:25.414Z,-8.60
2023-02-07T05:54:52.465Z,-8.60
2023-02-07T05:57:20.637Z,-8.70
2023-02-07T05:59:47.695Z,-8.70
2023-02-07T06:02:14.967Z,-8.70
2023-02-07T06:04:42.048Z,-8.70
2023-02-07T06:07:09.277Z,-8.70
2023-02-07T06:09:36.243Z,-8.70
2023-02-07T06:12:05.147Z,-8.70
2023-02-07T06:14:32.241Z,-8.70
2023-02-07T06:16:59.157Z,-8.80
2023-02-07T06:19:26.094Z,-8.80
2023-02-07T06:21:53.007Z,-8.80
2023-02-07T06:24:20.022Z,-8.80
2023-02-07T06:26:47.046Z,-8.80
2023-02-07T06:29:14.774Z,-8.80
2023-02-07T06:31:41.751Z,-8.70
2023-02-07T06:34:08.776Z,-8.70
2023-02-07T06:36:35.732Z,-8.70
2023-02-07T06:39:03.588Z,-8.70
2023-02-07T06:41:30.605Z,-8.70
2023-02-07T06:43:57.509Z,-8.70
2023-02-07T06:46:24.603Z,-8.70
2023-02-07T06:48:51.493Z,-8.70
2023-02-07T06:51:18.357Z,-8.70
2023-02-07T06:53:45.386Z,-8.60
2023-02-07T06:56:12.435Z,-8.30
2023-02-07T06:58:39.323Z,-8.10
2023-02-07T07:01:06.279Z,-7.80
2023-02-07T07:03:33.916Z,-7.50
2023-02-07T07:06:00.846Z,-7.10
2023-02-07T07:08:28.086Z,-6.70
2023-02-07T07:10:56.274Z,-6.20
2023-02-07T07:13:23.256Z,-5.80
2023-02-07T07:15:50.299Z,-5.40
2023-02-07T07:18:17.284Z,-4.90
2023-02-07T07:20:44.172Z,-4.50
2023-02-07T07:23:11.066Z,-4.00
2023-02-07T07:25:38.243Z,-3.40
2023-02-07T07:28:05.336Z,-2.90
2023-02-07T07:30:32.621Z,-2.40
2023-02-07T07:32:59.522Z,-2.00
2023-02-07T07:35:26.646Z,-1.50
2023-02-07T07:37:53.539Z,-1.20
2023-02-07T07:40:20.529Z,-0.70
2023-02-07T07:42:47.473Z,-0.20
2023-02-07T07:45:31.311Z,0.20
2023-02-07T07:47:58.241Z,0.60
2023-02-07T07:50:25.159Z,0.90
2023-02-07T07:52:52.138Z,1.20
2023-02-07T07:55:19.095Z,1.70
2023-02-07T07:57:45.991Z,2.10
2023-02-07T08:00:13.358Z,2.30
2023-02-07T08:02:40.832Z,2.80
2023-02-07T08:05:07.997Z,3.30
2023-02-07T08:07:35.019Z,3.80
2023-02-07T08:10:01.970Z,4.30
2023-02-07T08:12:29.025Z,4.30
2023-02-07T08:14:55.920Z,4.50
2023-02-07T08:17:22.930Z,4.90
2023-02-07T08:19:49.933Z,5.00
2023-02-07T08:22:17.088Z,5.50
2023-02-07T08:24:44.036Z,5.80
2023-02-07T08:27:10.964Z,5.90
2023-02-07T08:29:37.998Z,6.00
2023-02-07T08:32:05.588Z,6.30
2023-02-07T08:34:37.538Z,6.60
2023-02-07T08:37:05.817Z,7.00
2023-02-07T08:39:32.822Z,7.20
2023-02-07T08:41:59.880Z,7.30
2023-02-07T08:44:27.318Z,7.80
2023-02-07T08:46:54.279Z,8.20
2023-02-07T08:49:21.257Z,8.40
2023-02-07T08:51:48.185Z,8.60
2023-02-07T08:54:15.383Z,9.10
2023-02-07T08:56:42.349Z,9.30
2023-02-07T08:59:09.315Z,9.80
2023-02-07T09:01:36.296Z,9.90
2023-02-07T09:04:03.356Z,10.10
2023-02-07T09:06:30.276Z,10.80
2023-02-07T09:08:57.252Z,11.40
2023-02-07T09:11:24.534Z,11.30
2023-02-07T09:13:51.483Z,12.10
2023-02-07T09:16:18.478Z,13.00
2023-02-07T09:18:45.440Z,13.70
2023-02-07T09:21:12.396Z,14.40
2023-02-07T09:23:39.291Z,15.00
2023-02-07T09:26:07.157Z,14.80
2023-02-07T09:28:34.081Z,13.60
2023-02-07T09:31:02.020Z,13.90
2023-02-07T09:33:30.288Z,14.00
2023-02-07T09:35:57.219Z,14.40
2023-02-07T09:38:25.910Z,14.00
2023-02-07T09:40:53.737Z,14.40
2023-02-07T09:43:26.935Z,14.90
2023-02-07T09:45:56.379Z,15.90
2023-02-07T09:48:25.558Z,15.40
2023-02-07T09:50:54.836Z,14.70
2023-02-07T09:53:43.076Z,15.30
2023-02-07T09:56:11.014Z,16.20
2023-02-07T09:58:47.724Z,16.80
2023-02-07T10:01:16.175Z,16.30
2023-02-07T10:03:55.639Z,16.40
2023-02-07T10:06:27.323Z,15.70
2023-02-07T10:08:55.525Z,15.10
2023-02-07T10:11:25.668Z,15.30
2023-02-07T10:14:07.369Z,15.90
2023-02-07T10:16:53.244Z,15.50
2023-02-07T10:19:28.666Z,15.80
2023-02-07T10:22:07.926Z,15.70
2023-02-07T10:24:53.848Z,15.60
2023-02-07T10:27:44.625Z,13.50
2023-02-07T10:30:23.834Z,13.50
2023-02-07T10:32:52.173Z,13.00
2023-02-07T10:35:19.724Z,13.20
2023-02-07T10:37:47.960Z,12.90
2023-02-07T10:40:47.130Z,12.10
2023-02-07T10:43:26.262Z,11.40
2023-02-07T10:46:00.849Z,10.80
2023-02-07T10:48:33.249Z,10.60
2023-02-07T10:51:00.516Z,10.90
2023-02-07T10:53:53.720Z,10.00
2023-02-07T10:56:25.864Z,10.10
2023-02-07T10:58:54.308Z,9.90
2023-02-07T11:01:22.708Z,10.20
2023-02-07T11:03:50.064Z,9.80
2023-02-07T11:06:24.584Z,9.60
2023-02-07T11:09:03.442Z,9.60
2023-02-07T11:11:32.744Z,9.70
2023-02-07T11:14:04.026Z,9.40
2023-02-07T11:16:31.023Z,8.90
2023-02-07T11:19:02.835Z,8.60
2023-02-07T11:21:34.786Z,7.90
2023-02-07T11:24:21.456Z,7.40
2023-02-07T11:27:02.336Z,8.10
2023-02-07T11:29:30.370Z,7.40
2023-02-07T11:31:59.867Z,7.80
2023-02-07T11:34:46.033Z,7.70
2023-02-07T11:37:22.317Z,6.90
2023-02-07T11:39:50.358Z,6.70
2023-02-07T11:42:20.307Z,6.80
2023-02-07T11:44:47.970Z,6.80
2023-02-07T11:47:16.727Z,7.00
2023-02-07T11:49:47.318Z,7.30
2023-02-07T11:52:14.368Z,6.80
2023-02-07T11:54:42.967Z,7.20
2023-02-07T12:01:05.397Z,6.20
2023-02-07T12:03:34.634Z,5.50
2023-02-07T12:06:10.025Z,5.40
2023-02-07T12:08:42.032Z,5.60
2023-02-07T12:11:15.117Z,5.50
2023-02-07T12:14:03.227Z,5.30
2023-02-07T12:16:33.295Z,5.20
2023-02-07T12:19:06.888Z,5.10
2023-02-07T12:21:44.779Z,5.00
2023-02-07T12:24:30.549Z,4.90
2023-02-07T12:27:03.687Z,4.60
2023-02-07T12:29:30.841Z,4.40
2023-02-07T12:31:57.933Z,4.70
2023-02-07T12:34:34.130Z,4.80
2023-02-07T12:37:12.482Z,4.80
2023-02-07T12:40:09.016Z,4.60
2023-02-07T12:42:39.114Z,4.30
2023-02-07T12:45:07.046Z,4.20
2023-02-07T12:47:44.051Z,4.20
2023-02-07T12:50:31.979Z,4.10
2023-02-07T12:53:08.287Z,4.00
2023-02-07T12:55:35.226Z,4.30
2023-02-07T12:58:20.902Z,4.40
2023-02-07T13:00:54.735Z,4.30
2023-02-07T13:03:30.452Z,4.00
2023-02-07T13:06:09.746Z,3.80
2023-02-07T13:08:36.695Z,3.80
2023-02-07T13:11:22.514Z,3.70
2023-02-07T13:13:49.672Z,3.80
2023-02-07T13:16:16.579Z,3.40
2023-02-07T13:18:46.552Z,3.40
2023-02-07T13:21:18.935Z,3.40
2023-02-07T13:23:47.183Z,3.40
2023-02-07T13:26:17.227Z,3.30
2023-02-07T13:28:53.275Z,3.20
2023-02-07T13:31:22.674Z,3.40
2023-02-07T13:33:50.662Z,3.50
2023-02-07T13:36:22.197Z,3.60
2023-02-07T13:39:02.211Z,3.50
2023-02-07T13:41:34.245Z,3.40
2023-02-07T13:44:20.481Z,3.40
2023-02-07T13:47:03.136Z,3.40
2023-02-07T13:49:39.354Z,3.50
2023-02-07T13:52:12.389Z,3.60
2023-02-07T13:54:49.663Z,3.30
2023-02-07T13:57:57.231Z,3.30
2023-02-07T14:00:25.773Z,3.40
2023-02-07T14:02:54.315Z,3.50
2023-02-07T14:05:33.999Z,3.60
2023-02-07T14:08:05.491Z,3.50
2023-02-07T14:10:35.417Z,3.20
2023-02-07T14:13:02.757Z,3.00
2023-02-07T14:15:34.918Z,3.00
2023-02-07T14:18:03.685Z,2.90
2023-02-07T14:20:37.233Z,3.00
2023-02-07T14:23:13.971Z,3.00
2023-02-07T14:25:42.311Z,2.90
2023-02-07T14:28:18.672Z,3.00
2023-02-07T14:30:48.939Z,3.10
2023-02-07T14:33:17.431Z,3.10
2023-02-07T14:35:44.333Z,3.20
2023-02-07T14:38:21.498Z,3.10
2023-02-07T14:41:09.419Z,3.00
2023-02-07T14:44:08.158Z,2.90
2023-02-07T14:46:41.594Z,3.00
2023-02-07T14:49:34.921Z,3.10
2023-02-07T14:52:08.273Z,3.10
2023-02-07T14:54:43.072Z,3.10
2023-02-07T14:57:22.345Z,3.00
2023-02-07T15:00:09.429Z,3.00
2023-02-07T15:02:36.511Z,2.90
2023-02-07T15:05:15.691Z,2.80
2023-02-07T15:07:44.181Z,2.80
2023-02-07T15:10:26.425Z,2.80
2023-02-07T15:12:54.121Z,2.80
2023-02-07T15:15:23.760Z,2.80
2023-02-07T15:17:51.195Z,2.80
2023-02-07T15:20:23.743Z,2.60
2023-02-07T15:22:51.997Z,2.60
2023-02-07T15:25:18.982Z,2.50
2023-02-07T15:28:09.249Z,2.60
2023-02-07T15:30:38.356Z,2.60
2023-02-07T15:33:10.824Z,2.50
2023-02-07T15:35:39.623Z,2.40
2023-02-07T15:38:15.022Z,2.40
2023-02-07T15:40:42.628Z,2.40
2023-02-07T15:43:26.800Z,2.40
2023-02-07T15:46:00.064Z,2.40
2023-02-07T15:48:27.215Z,2.30
2023-02-07T15:50:55.103Z,2.20
2023-02-07T15:53:24.546Z,2.20
2023-02-07T15:55:51.648Z,2.10
2023-02-07T15:58:22.404Z,2.10
2023-02-07T16:00:49.647Z,2.00
2023-02-07T16:03:36.931Z,1.90
2023-02-07T16:06:09.591Z,1.80
2023-02-07T16:08:38.241Z,1.80
2023-02-07T16:11:15.593Z,1.70
2023-02-07T16:13:47.585Z,1.70
2023-02-07T16:16:19.930Z,1.50
2023-02-07T16:18:48.345Z,1.50
2023-02-07T16:21:21.329Z,1.40
2023-02-07T16:23:49.625Z,1.40
2023-02-07T16:26:18.807Z,1.30
2023-02-07T16:28:46.662Z,1.30
2023-02-07T16:31:14.522Z,1.20
2023-02-07T16:33:41.741Z,1.30
2023-02-07T16:36:16.351Z,1.20
2023-02-07T16:38:43.852Z,1.10
2023-02-07T16:41:31.551Z,1.10
2023-02-07T16:44:00.354Z,0.90
2023-02-07T16:46:27.449Z,0.70
2023-02-07T16:48:54.488Z,0.70
2023-02-07T16:51:21.710Z,0.70
2023-02-07T16:53:48.862Z,0.60
2023-02-07T16:56:19.683Z,0.50
2023-02-07T16:58:46.793Z,0.50
2023-02-07T17:01:17.250Z,0.50
2023-02-07T17:03:45.903Z,0.50
2023-02-07T17:06:16.715Z,0.50
2023-02-07T17:08:44.231Z,0.40
2023-02-07T17:11:16.120Z,0.40
2023-02-07T17:13:43.924Z,0.40
2023-02-07T17:16:14.315Z,0.30
2023-02-07T17:18:42.319Z,0.20
2023-02-07T17:21:12.000Z,0.00
2023-02-07T17:23:39.702Z,-0.10
2023-02-07T17:26:10.861Z,-0.20
2023-02-07T17:28:38.472Z,-0.20
2023-02-07T17:31:05.556Z,-0.20
2023-02-07T17:33:33.130Z,-0.20
2023-02-07T17:36:00.935Z,-0.20
2023-02-07T17:38:28.463Z,-0.20
2023-02-07T17:40:55.866Z,-0.20
2023-02-07T17:43:23.834Z,-0.40
2023-02-07T17:45:51.584Z,-0.40
2023-02-07T17:48:19.283Z,-0.50
2023-02-07T17:50:47.211Z,-0.60
2023-02-07T17:53:15.042Z,-0.60
2023-02-07T17:55:44.700Z,-0.60
2023-02-07T17:58:12.887Z,-0.60
2023-02-07T18:00:41.841Z,-0.60
2023-02-07T18:03:14.152Z,-0.60
2023-02-07T18:05:43.534Z,-0.60
2023-02-07T18:08:14.238Z,-0.70
2023-02-07T18:10:42.557Z,-0.80
2023-02-07T18:13:10.715Z,-0.90
2023-02-07T18:15:42.206Z,-1.00
2023-02-07T18:18:11.641Z,-1.10
2023-02-07T18:20:39.851Z,-1.10
2023-02-07T18:23:07.729Z,-1.10
2023-02-07T18:25:35.725Z,-1.20
2023-02-07T18:28:05.775Z,-1.20
2023-02-07T18:30:39.784Z,-1.20
2023-02-07T18:33:08.431Z,-1.30
2023-02-07T18:35:36.817Z,-1.40
2023-02-07T18:38:07.332Z,-1.40
2023-02-07T18:40:41.495Z,-1.40
2023-02-07T18:43:11.144Z,-1.40
2023-02-07T18:45:42.967Z,-1.50
2023-02-07T18:48:11.364Z,-1.60
2023-02-07T18:50:42.661Z,-1.60
2023-02-07T18:53:12.298Z,-1.70
2023-02-07T18:55:40.470Z,-1.80
2023-02-07T18:58:08.725Z,-1.80
2023-02-07T19:00:36.692Z,-1.80
2023-02-07T19:03:05.830Z,-1.90
2023-02-07T19:05:42.710Z,-1.90
2023-02-07T19:08:11.479Z,-1.90
2023-02-07T19:10:39.348Z,-2.00
2023-02-07T19:13:09.565Z,-2.00
2023-02-07T19:15:39.372Z,-2.10
2023-02-07T19:18:07.640Z,-2.10
2023-02-07T19:20:35.569Z,-2.10
2023-02-07T19:23:03.883Z,-2.20
2023-02-07T19:25:32.168Z,-2.30
2023-02-07T19:28:01.987Z,-2.30
2023-02-07T19:30:31.294Z,-2.30
2023-02-07T19:32:59.669Z,-2.30
2023-02-07T19:35:28.285Z,-2.40
2023-02-07T19:37:58.742Z,-2.40
2023-02-07T19:40:26.880Z,-2.40
2023-02-07T19:42:54.978Z,-2.50
2023-02-07T19:45:23.025Z,-2.50
2023-02-07T19:47:50.576Z,-2.70
2023-02-07T19:50:18.096Z,-2.70
2023-02-07T19:52:46.921Z,-2.80
2023-02-07T19:55:15.102Z,-2.70
2023-02-07T19:57:42.919Z,-2.80
2023-02-07T20:00:13.424Z,-2.80
2023-02-07T20:02:41.527Z,-2.80
2023-02-07T20:05:10.016Z,-2.90
2023-02-07T20:07:38.564Z,-2.90
2023-02-07T20:10:06.145Z,-3.00
2023-02-07T20:12:34.083Z,-3.00
2023-02-07T20:15:03.414Z,-3.00
2023-02-07T20:17:31.511Z,-3.10
2023-02-07T20:20:02.621Z,-3.20
2023-02-07T20:22:30.771Z,-3.30
2023-02-07T20:24:58.900Z,-3.30
2023-02-07T20:27:27.744Z,-3.30
2023-02-07T20:29:56.365Z,-3.40
2023-02-07T20:32:23.762Z,-3.40
2023-02-07T20:34:52.696Z,-3.40
2023-02-07T20:37:21.430Z,-3.50
2023-02-07T20:39:51.457Z,-3.50
2023-02-07T20:42:21.194Z,-3.50
2023-02-07T20:44:50.634Z,-3.60
2023-02-07T20:47:18.836Z,-3.60
2023-02-07T20:49:47.092Z,-3.70
2023-02-07T20:52:15.728Z,-3.70
2023-02-07T20:54:43.309Z,-3.70
2023-02-07T20:57:11.126Z,-3.70
2023-02-07T20:59:39.193Z,-3.80
2023-02-07T21:02:08.458Z,-3.80
2023-02-07T21:04:38.045Z,-3.80
2023-02-07T21:07:05.834Z,-3.90
2023-02-07T21:09:33.693Z,-4.00
2023-02-07T21:12:01.505Z,-3.90
2023-02-07T21:14:31.018Z,-4.00
2023-02-07T21:17:01.609Z,-4.00
2023-02-07T21:19:29.682Z,-4.00
2023-02-07T21:21:56.653Z,-4.10
2023-02-07T21:24:24.570Z,-4.20
2023-02-07T21:26:52.511Z,-4.20
2023-02-07T21:29:21.694Z,-4.30
2023-02-07T21:31:50.608Z,-4.30
2023-02-07T21:34:21.124Z,-4.30
2023-02-07T21:36:49.126Z,-4.40
2023-02-07T21:39:16.166Z,-4.50
2023-02-07T21:41:44.548Z,-4.50
2023-02-07T21:44:12.978Z,-4.50
2023-02-07T21:46:40.735Z,-4.50
2023-02-07T21:49:14.907Z,-4.50
2023-02-07T21:51:42.930Z,-4.50
2023-02-07T21:54:10.202Z,-4.50
2023-02-07T21:56:38.352Z,-4.60
2023-02-07T21:59:07.163Z,-4.60
2023-02-07T22:01:34.856Z,-4.70
2023-02-07T22:04:02.270Z,-4.70
2023-02-07T22:06:30.407Z,-4.80
2023-02-07T22:08:58.558Z,-4.80
2023-02-07T22:11:26.706Z,-4.80
2023-02-07T22:13:54.144Z,-4.80
2023-02-07T22:16:22.869Z,-4.80
2023-02-07T22:18:51.226Z,-4.90
2023-02-07T22:21:32.053Z,-4.90
2023-02-07T22:23:59.638Z,-4.90
2023-02-07T22:26:27.165Z,-5.00
2023-02-07T22:28:54.296Z,-5.10
2023-02-07T22:31:23.036Z,-5.10
2023-02-07T22:33:50.894Z,-5.10
2023-02-07T22:36:20.109Z,-5.10
2023-02-07T22:38:47.431Z,-5.10
2023-02-07T22:41:14.869Z,-5.20
2023-02-07T22:43:41.831Z,-5.20
2023-02-07T22:46:11.035Z,-5.20
2023-02-07T22:48:38.138Z,-5.30
2023-02-07T22:51:14.288Z,-5.30
2023-02-07T22:53:41.372Z,-5.30
2023-02-07T22:56:08.477Z,-5.30
2023-02-07T22:58:35.889Z,-5.30
2023-02-07T23:01:02.876Z,-5.30
2023-02-07T23:03:29.993Z,-5.40
2023-02-07T23:05:57.080Z,-5.40
2023-02-07T23:08:24.030Z,-5.50
2023-02-07T23:10:50.957Z,-5.50
2023-02-07T23:13:17.910Z,-5.50
2023-02-07T23:15:46.426Z,-5.60
2023-02-07T23:18:15.679Z,-5.60
2023-02-07T23:20:44.183Z,-5.60
2023-02-07T23:23:12.000Z,-5.60
2023-02-07T23:25:45.727Z,-5.60
2023-02-07T23:28:13.096Z,-5.70
2023-02-07T23:30:40.632Z,-5.70
2023-02-07T23:33:09.363Z,-5.80
2023-02-07T23:35:36.793Z,-5.80
2023-02-07T23:38:03.840Z,-5.80
2023-02-07T23:40:30.706Z,-5.80
2023-02-07T23:42:57.697Z,-5.80
2023-02-07T23:45:25.232Z,-5.90
2023-02-07T23:47:52.143Z,-5.90
2023-02-07T23:50:19.052Z,-5.90
2023-02-07T23:52:45.991Z,-6.00
2023-02-07T23:55:13.291Z,-6.00
2023-02-07T23:57:40.338Z,-6.00
